sensor_id;sensor_type;location;lat;lon;timestamp;P1;durP1;ratioP1;P2;durP2;ratioP2
52868;SDS011;39100;53.480;6.158;2024-02-26T00:01:40;2.78;;;0.63;;
52868;SDS011;39100;53.480;6.158;2024-02-26T00:04:05;1.38;;;0.57;;
52868;SDS011;39100;53.480;6.158;2024-02-26T00:06:31;0.30;;;0.20;;
52868;SDS011;39100;53.480;6.158;2024-02-26T00:08:57;1.27;;;0.30;;
52868;SDS011;39100;53.480;6.158;2024-02-26T00:11:23;2.13;;;0.40;;
52868;SDS011;39100;53.480;6.158;2024-02-26T00:13:49;1.25;;;0.15;;
52868;SDS011;39100;53.480;6.158;2024-02-26T00:16:14;2.40;;;0.45;;
52868;SDS011;39100;53.480;6.158;2024-02-26T00:18:40;0.47;;;0.47;;
52868;SDS011;39100;53.480;6.158;2024-02-26T00:21:05;1.35;;;0.10;;
52868;SDS011;39100;53.480;6.158;2024-02-26T00:23:31;0.43;;;0.08;;
52868;SDS011;39100;53.480;6.158;2024-02-26T00:25:57;1.15;;;0.28;;
52868;SDS011;39100;53.480;6.158;2024-02-26T00:28:23;0.10;;;0.10;;
52868;SDS011;39100;53.480;6.158;2024-02-26T00:30:49;0.40;;;0.10;;
52868;SDS011;39100;53.480;6.158;2024-02-26T00:33:16;0.50;;;0.15;;
52868;SDS011;39100;53.480;6.158;2024-02-26T00:35:42;3.35;;;0.40;;
52868;SDS011;39100;53.480;6.158;2024-02-26T00:38:08;1.65;;;0.40;;
52868;SDS011;39100;53.480;6.158;2024-02-26T00:40:33;2.55;;;0.20;;
52868;SDS011;39100;53.480;6.158;2024-02-26T00:42:59;1.35;;;0.35;;
52868;SDS011;39100;53.480;6.158;2024-02-26T00:45:25;0.90;;;0.20;;
52868;SDS011;39100;53.480;6.158;2024-02-26T00:47:50;0.30;;;0.28;;
52868;SDS011;39100;53.480;6.158;2024-02-26T00:50:16;1.23;;;0.20;;
52868;SDS011;39100;53.480;6.158;2024-02-26T00:52:42;0.85;;;0.20;;
52868;SDS011;39100;53.480;6.158;2024-02-26T00:55:07;1.65;;;0.20;;
52868;SDS011;39100;53.480;6.158;2024-02-26T00:57:33;1.17;;;0.17;;
52868;SDS011;39100;53.480;6.158;2024-02-26T00:59:59;0.82;;;0.40;;
52868;SDS011;39100;53.480;6.158;2024-02-26T01:02:25;0.35;;;0.20;;
52868;SDS011;39100;53.480;6.158;2024-02-26T01:04:51;1.05;;;0.75;;
52868;SDS011;39100;53.480;6.158;2024-02-26T01:07:17;1.48;;;0.10;;
52868;SDS011;39100;53.480;6.158;2024-02-26T01:09:44;0.95;;;0.20;;
52868;SDS011;39100;53.480;6.158;2024-02-26T01:12:09;1.13;;;0.22;;
52868;SDS011;39100;53.480;6.158;2024-02-26T01:14:35;1.02;;;0.20;;
52868;SDS011;39100;53.480;6.158;2024-02-26T01:17:00;0.73;;;0.20;;
52868;SDS011;39100;53.480;6.158;2024-02-26T01:19:26;0.63;;;0.03;;
52868;SDS011;39100;53.480;6.158;2024-02-26T01:21:52;1.20;;;0.20;;
52868;SDS011;39100;53.480;6.158;2024-02-26T01:24:18;0.10;;;0.10;;
52868;SDS011;39100;53.480;6.158;2024-02-26T01:26:44;1.00;;;0.28;;
52868;SDS011;39100;53.480;6.158;2024-02-26T01:29:09;0.22;;;0.20;;
52868;SDS011;39100;53.480;6.158;2024-02-26T01:31:35;1.15;;;0.20;;
52868;SDS011;39100;53.480;6.158;2024-02-26T01:34:01;0.90;;;0.20;;
52868;SDS011;39100;53.480;6.158;2024-02-26T01:36:26;1.17;;;0.10;;
52868;SDS011;39100;53.480;6.158;2024-02-26T01:38:52;2.45;;;0.20;;
52868;SDS011;39100;53.480;6.158;2024-02-26T01:41:18;0.20;;;0.10;;
52868;SDS011;39100;53.480;6.158;2024-02-26T01:43:43;0.93;;;0.10;;
52868;SDS011;39100;53.480;6.158;2024-02-26T01:46:11;0.20;;;0.10;;
52868;SDS011;39100;53.480;6.158;2024-02-26T01:48:39;0.00;;;0.00;;
52868;SDS011;39100;53.480;6.158;2024-02-26T01:51:06;0.47;;;0.20;;
52868;SDS011;39100;53.480;6.158;2024-02-26T01:53:32;1.52;;;0.17;;
52868;SDS011;39100;53.480;6.158;2024-02-26T01:55:58;0.20;;;0.10;;
52868;SDS011;39100;53.480;6.158;2024-02-26T01:58:23;1.30;;;0.10;;
52868;SDS011;39100;53.480;6.158;2024-02-26T02:00:49;0.55;;;0.10;;
52868;SDS011;39100;53.480;6.158;2024-02-26T02:03:15;0.85;;;0.30;;
52868;SDS011;39100;53.480;6.158;2024-02-26T02:05:41;0.20;;;0.20;;
52868;SDS011;39100;53.480;6.158;2024-02-26T02:08:07;0.32;;;0.10;;
52868;SDS011;39100;53.480;6.158;2024-02-26T02:10:35;0.63;;;0.20;;
52868;SDS011;39100;53.480;6.158;2024-02-26T02:13:01;1.10;;;0.10;;
52868;SDS011;39100;53.480;6.158;2024-02-26T02:15:27;0.43;;;0.10;;
52868;SDS011;39100;53.480;6.158;2024-02-26T02:17:53;0.80;;;0.10;;
52868;SDS011;39100;53.480;6.158;2024-02-26T02:20:19;0.30;;;0.00;;
52868;SDS011;39100;53.480;6.158;2024-02-26T02:22:49;0.20;;;0.13;;
52868;SDS011;39100;53.480;6.158;2024-02-26T02:25:14;0.32;;;0.20;;
52868;SDS011;39100;53.480;6.158;2024-02-26T02:27:40;0.57;;;0.10;;
52868;SDS011;39100;53.480;6.158;2024-02-26T02:30:08;0.40;;;0.10;;
52868;SDS011;39100;53.480;6.158;2024-02-26T02:32:34;0.98;;;0.10;;
52868;SDS011;39100;53.480;6.158;2024-02-26T02:35:02;0.00;;;0.00;;
52868;SDS011;39100;53.480;6.158;2024-02-26T02:37:28;0.20;;;0.20;;
52868;SDS011;39100;53.480;6.158;2024-02-26T02:39:54;0.70;;;0.10;;
52868;SDS011;39100;53.480;6.158;2024-02-26T02:42:20;0.00;;;0.00;;
52868;SDS011;39100;53.480;6.158;2024-02-26T02:44:45;0.17;;;0.10;;
52868;SDS011;39100;53.480;6.158;2024-02-26T02:47:11;0.55;;;0.17;;
52868;SDS011;39100;53.480;6.158;2024-02-26T02:49:36;0.00;;;0.00;;
52868;SDS011;39100;53.480;6.158;2024-02-26T02:52:02;0.22;;;0.10;;
52868;SDS011;39100;53.480;6.158;2024-02-26T02:54:28;1.40;;;0.20;;
52868;SDS011;39100;53.480;6.158;2024-02-26T02:56:53;0.30;;;0.10;;
52868;SDS011;39100;53.480;6.158;2024-02-26T02:59:19;0.03;;;0.00;;
52868;SDS011;39100;53.480;6.158;2024-02-26T03:01:44;0.35;;;0.00;;
52868;SDS011;39100;53.480;6.158;2024-02-26T03:04:10;2.28;;;0.20;;
52868;SDS011;39100;53.480;6.158;2024-02-26T03:06:36;0.38;;;0.10;;
52868;SDS011;39100;53.480;6.158;2024-02-26T03:09:01;0.75;;;0.10;;
52868;SDS011;39100;53.480;6.158;2024-02-26T03:11:27;0.10;;;0.10;;
52868;SDS011;39100;53.480;6.158;2024-02-26T03:13:52;0.10;;;0.00;;
52868;SDS011;39100;53.480;6.158;2024-02-26T03:16:18;0.90;;;0.15;;
52868;SDS011;39100;53.480;6.158;2024-02-26T03:18:43;0.10;;;0.10;;
52868;SDS011;39100;53.480;6.158;2024-02-26T03:21:09;0.28;;;0.20;;
52868;SDS011;39100;53.480;6.158;2024-02-26T03:23:35;0.00;;;0.00;;
52868;SDS011;39100;53.480;6.158;2024-02-26T03:26:04;1.05;;;0.38;;
52868;SDS011;39100;53.480;6.158;2024-02-26T03:28:30;1.63;;;0.20;;
52868;SDS011;39100;53.480;6.158;2024-02-26T03:30:58;0.43;;;0.30;;
52868;SDS011;39100;53.480;6.158;2024-02-26T03:33:24;0.68;;;0.10;;
52868;SDS011;39100;53.480;6.158;2024-02-26T03:35:50;0.10;;;0.05;;
52868;SDS011;39100;53.480;6.158;2024-02-26T03:38:15;1.98;;;0.15;;
52868;SDS011;39100;53.480;6.158;2024-02-26T03:40:41;0.98;;;0.13;;
52868;SDS011;39100;53.480;6.158;2024-02-26T03:43:06;0.93;;;0.30;;
52868;SDS011;39100;53.480;6.158;2024-02-26T03:45:32;1.10;;;0.20;;
52868;SDS011;39100;53.480;6.158;2024-02-26T03:47:58;0.30;;;0.10;;
52868;SDS011;39100;53.480;6.158;2024-02-26T03:50:24;0.45;;;0.10;;
52868;SDS011;39100;53.480;6.158;2024-02-26T03:52:50;0.85;;;0.10;;
52868;SDS011;39100;53.480;6.158;2024-02-26T03:55:15;0.30;;;0.05;;
52868;SDS011;39100;53.480;6.158;2024-02-26T03:57:45;0.68;;;0.13;;
52868;SDS011;39100;53.480;6.158;2024-02-26T04:00:11;1.65;;;0.30;;
52868;SDS011;39100;53.480;6.158;2024-02-26T04:02:37;0.60;;;0.10;;
52868;SDS011;39100;53.480;6.158;2024-02-26T04:05:03;1.65;;;0.00;;
52868;SDS011;39100;53.480;6.158;2024-02-26T04:07:29;0.13;;;0.08;;
52868;SDS011;39100;53.480;6.158;2024-02-26T04:09:55;0.13;;;0.08;;
52868;SDS011;39100;53.480;6.158;2024-02-26T04:12:21;0.10;;;0.10;;
52868;SDS011;39100;53.480;6.158;2024-02-26T04:14:46;0.80;;;0.05;;
52868;SDS011;39100;53.480;6.158;2024-02-26T04:17:12;1.65;;;0.13;;
52868;SDS011;39100;53.480;6.158;2024-02-26T04:19:37;0.20;;;0.10;;
52868;SDS011;39100;53.480;6.158;2024-02-26T04:22:03;1.48;;;0.10;;
52868;SDS011;39100;53.480;6.158;2024-02-26T04:24:29;0.20;;;0.00;;
52868;SDS011;39100;53.480;6.158;2024-02-26T04:26:54;0.22;;;0.10;;
52868;SDS011;39100;53.480;6.158;2024-02-26T04:29:20;0.20;;;0.10;;
52868;SDS011;39100;53.480;6.158;2024-02-26T04:31:45;1.63;;;0.20;;
52868;SDS011;39100;53.480;6.158;2024-02-26T04:34:11;0.10;;;0.10;;
52868;SDS011;39100;53.480;6.158;2024-02-26T04:36:37;0.20;;;0.00;;
52868;SDS011;39100;53.480;6.158;2024-02-26T04:39:03;0.17;;;0.10;;
52868;SDS011;39100;53.480;6.158;2024-02-26T04:41:28;0.20;;;0.10;;
52868;SDS011;39100;53.480;6.158;2024-02-26T04:43:54;0.38;;;0.32;;
52868;SDS011;39100;53.480;6.158;2024-02-26T04:46:19;0.32;;;0.10;;
52868;SDS011;39100;53.480;6.158;2024-02-26T04:48:47;1.70;;;0.10;;
52868;SDS011;39100;53.480;6.158;2024-02-26T04:51:12;0.82;;;0.13;;
52868;SDS011;39100;53.480;6.158;2024-02-26T04:53:38;0.43;;;0.20;;
52868;SDS011;39100;53.480;6.158;2024-02-26T04:56:04;0.00;;;0.00;;
52868;SDS011;39100;53.480;6.158;2024-02-26T04:58:29;0.00;;;0.00;;
52868;SDS011;39100;53.480;6.158;2024-02-26T05:00:55;1.13;;;0.10;;
52868;SDS011;39100;53.480;6.158;2024-02-26T05:03:21;0.50;;;0.20;;
52868;SDS011;39100;53.480;6.158;2024-02-26T05:05:46;0.28;;;0.10;;
52868;SDS011;39100;53.480;6.158;2024-02-26T05:08:12;0.43;;;0.10;;
52868;SDS011;39100;53.480;6.158;2024-02-26T05:10:38;0.10;;;0.10;;
52868;SDS011;39100;53.480;6.158;2024-02-26T05:13:06;3.50;;;0.20;;
52868;SDS011;39100;53.480;6.158;2024-02-26T05:15:32;0.65;;;0.00;;
52868;SDS011;39100;53.480;6.158;2024-02-26T05:17:57;0.85;;;0.10;;
52868;SDS011;39100;53.480;6.158;2024-02-26T05:20:23;0.52;;;0.10;;
52868;SDS011;39100;53.480;6.158;2024-02-26T05:22:49;0.00;;;0.00;;
52868;SDS011;39100;53.480;6.158;2024-02-26T05:25:15;0.57;;;0.08;;
52868;SDS011;39100;53.480;6.158;2024-02-26T05:27:41;1.95;;;0.40;;
52868;SDS011;39100;53.480;6.158;2024-02-26T05:30:08;1.45;;;0.00;;
52868;SDS011;39100;53.480;6.158;2024-02-26T05:32:34;0.05;;;0.05;;
52868;SDS011;39100;53.480;6.158;2024-02-26T05:35:00;0.10;;;0.00;;
52868;SDS011;39100;53.480;6.158;2024-02-26T05:37:28;0.82;;;0.00;;
52868;SDS011;39100;53.480;6.158;2024-02-26T05:39:53;0.75;;;0.08;;
52868;SDS011;39100;53.480;6.158;2024-02-26T05:42:19;0.50;;;0.32;;
52868;SDS011;39100;53.480;6.158;2024-02-26T05:44:44;0.25;;;0.00;;
52868;SDS011;39100;53.480;6.158;2024-02-26T05:47:10;0.17;;;0.03;;
52868;SDS011;39100;53.480;6.158;2024-02-26T05:49:35;0.08;;;0.08;;
52868;SDS011;39100;53.480;6.158;2024-02-26T05:52:01;0.38;;;0.10;;
52868;SDS011;39100;53.480;6.158;2024-02-26T05:54:27;0.10;;;0.00;;
52868;SDS011;39100;53.480;6.158;2024-02-26T05:56:52;0.75;;;0.10;;
52868;SDS011;39100;53.480;6.158;2024-02-26T05:59:18;0.00;;;0.00;;
52868;SDS011;39100;53.480;6.158;2024-02-26T06:01:43;0.15;;;0.00;;
52868;SDS011;39100;53.480;6.158;2024-02-26T06:04:09;0.00;;;0.00;;
52868;SDS011;39100;53.480;6.158;2024-02-26T06:06:34;0.85;;;0.13;;
52868;SDS011;39100;53.480;6.158;2024-02-26T06:09:00;0.52;;;0.10;;
52868;SDS011;39100;53.480;6.158;2024-02-26T06:11:25;0.50;;;0.30;;
52868;SDS011;39100;53.480;6.158;2024-02-26T06:13:52;1.27;;;0.10;;
52868;SDS011;39100;53.480;6.158;2024-02-26T06:16:17;0.03;;;0.03;;
52868;SDS011;39100;53.480;6.158;2024-02-26T06:18:43;1.00;;;0.20;;
52868;SDS011;39100;53.480;6.158;2024-02-26T06:21:09;0.98;;;0.05;;
52868;SDS011;39100;53.480;6.158;2024-02-26T06:23:38;0.30;;;0.10;;
52868;SDS011;39100;53.480;6.158;2024-02-26T06:26:05;1.60;;;0.10;;
52868;SDS011;39100;53.480;6.158;2024-02-26T06:28:31;1.75;;;0.30;;
52868;SDS011;39100;53.480;6.158;2024-02-26T06:30:58;0.15;;;0.10;;
52868;SDS011;39100;53.480;6.158;2024-02-26T06:33:24;2.03;;;0.50;;
52868;SDS011;39100;53.480;6.158;2024-02-26T06:35:50;0.57;;;0.10;;
52868;SDS011;39100;53.480;6.158;2024-02-26T06:38:15;0.30;;;0.10;;
52868;SDS011;39100;53.480;6.158;2024-02-26T06:40:42;1.52;;;0.70;;
52868;SDS011;39100;53.480;6.158;2024-02-26T06:43:08;3.13;;;1.80;;
52868;SDS011;39100;53.480;6.158;2024-02-26T06:45:34;3.25;;;0.80;;
52868;SDS011;39100;53.480;6.158;2024-02-26T06:48:00;1.58;;;0.90;;
52868;SDS011;39100;53.480;6.158;2024-02-26T06:50:25;0.80;;;0.80;;
52868;SDS011;39100;53.480;6.158;2024-02-26T06:52:51;0.65;;;0.60;;
52868;SDS011;39100;53.480;6.158;2024-02-26T06:55:17;1.10;;;0.75;;
52868;SDS011;39100;53.480;6.158;2024-02-26T06:57:42;1.35;;;0.40;;
52868;SDS011;39100;53.480;6.158;2024-02-26T07:00:08;0.40;;;0.40;;
52868;SDS011;39100;53.480;6.158;2024-02-26T07:02:39;0.28;;;0.28;;
52868;SDS011;39100;53.480;6.158;2024-02-26T07:05:05;0.80;;;0.40;;
52868;SDS011;39100;53.480;6.158;2024-02-26T07:07:31;1.95;;;0.40;;
52868;SDS011;39100;53.480;6.158;2024-02-26T07:09:56;1.23;;;0.47;;
52868;SDS011;39100;53.480;6.158;2024-02-26T07:12:22;2.65;;;0.85;;
52868;SDS011;39100;53.480;6.158;2024-02-26T07:14:48;1.05;;;0.90;;
52868;SDS011;39100;53.480;6.158;2024-02-26T07:17:15;0.80;;;0.30;;
52868;SDS011;39100;53.480;6.158;2024-02-26T07:19:41;1.67;;;0.43;;
52868;SDS011;39100;53.480;6.158;2024-02-26T07:22:07;0.82;;;0.43;;
52868;SDS011;39100;53.480;6.158;2024-02-26T07:24:33;0.88;;;0.40;;
52868;SDS011;39100;53.480;6.158;2024-02-26T07:26:58;0.32;;;0.30;;
52868;SDS011;39100;53.480;6.158;2024-02-26T07:29:24;0.68;;;0.30;;
52868;SDS011;39100;53.480;6.158;2024-02-26T07:31:50;0.70;;;0.40;;
52868;SDS011;39100;53.480;6.158;2024-02-26T07:34:15;0.68;;;0.32;;
52868;SDS011;39100;53.480;6.158;2024-02-26T07:36:41;1.15;;;0.32;;
52868;SDS011;39100;53.480;6.158;2024-02-26T07:39:06;0.60;;;0.60;;
52868;SDS011;39100;53.480;6.158;2024-02-26T07:41:32;1.35;;;0.32;;
52868;SDS011;39100;53.480;6.158;2024-02-26T07:43:58;1.00;;;0.65;;
52868;SDS011;39100;53.480;6.158;2024-02-26T07:46:23;0.95;;;0.38;;
52868;SDS011;39100;53.480;6.158;2024-02-26T07:48:49;2.92;;;1.25;;
52868;SDS011;39100;53.480;6.158;2024-02-26T07:51:14;0.80;;;0.43;;
52868;SDS011;39100;53.480;6.158;2024-02-26T07:53:40;1.20;;;0.40;;
52868;SDS011;39100;53.480;6.158;2024-02-26T07:56:06;2.05;;;0.45;;
52868;SDS011;39100;53.480;6.158;2024-02-26T07:58:32;2.28;;;0.60;;
52868;SDS011;39100;53.480;6.158;2024-02-26T08:00:58;1.10;;;0.20;;
52868;SDS011;39100;53.480;6.158;2024-02-26T08:03:24;1.10;;;0.25;;
52868;SDS011;39100;53.480;6.158;2024-02-26T08:05:50;1.25;;;0.30;;
52868;SDS011;39100;53.480;6.158;2024-02-26T08:08:16;1.25;;;0.25;;
52868;SDS011;39100;53.480;6.158;2024-02-26T08:10:42;2.25;;;0.20;;
52868;SDS011;39100;53.480;6.158;2024-02-26T08:13:08;2.55;;;0.50;;
52868;SDS011;39100;53.480;6.158;2024-02-26T08:15:34;2.00;;;0.40;;
52868;SDS011;39100;53.480;6.158;2024-02-26T08:18:00;1.75;;;0.50;;
52868;SDS011;39100;53.480;6.158;2024-02-26T08:20:30;2.55;;;0.50;;
52868;SDS011;39100;53.480;6.158;2024-02-26T08:22:56;0.95;;;0.65;;
52868;SDS011;39100;53.480;6.158;2024-02-26T08:25:22;1.70;;;0.40;;
52868;SDS011;39100;53.480;6.158;2024-02-26T08:27:48;0.85;;;0.35;;
52868;SDS011;39100;53.480;6.158;2024-02-26T08:30:14;1.38;;;0.20;;
52868;SDS011;39100;53.480;6.158;2024-02-26T08:32:42;0.55;;;0.20;;
52868;SDS011;39100;53.480;6.158;2024-02-26T08:35:08;0.85;;;0.30;;
52868;SDS011;39100;53.480;6.158;2024-02-26T08:37:34;0.55;;;0.20;;
52868;SDS011;39100;53.480;6.158;2024-02-26T08:39:59;2.90;;;0.50;;
52868;SDS011;39100;53.480;6.158;2024-02-26T08:42:25;0.60;;;0.38;;
52868;SDS011;39100;53.480;6.158;2024-02-26T08:44:50;0.68;;;0.63;;
52868;SDS011;39100;53.480;6.158;2024-02-26T08:47:16;2.22;;;0.50;;
52868;SDS011;39100;53.480;6.158;2024-02-26T08:49:45;0.60;;;0.40;;
52868;SDS011;39100;53.480;6.158;2024-02-26T08:52:10;3.05;;;0.45;;
52868;SDS011;39100;53.480;6.158;2024-02-26T08:54:36;2.05;;;0.40;;
52868;SDS011;39100;53.480;6.158;2024-02-26T08:57:02;6.57;;;1.05;;
52868;SDS011;39100;53.480;6.158;2024-02-26T08:59:28;3.58;;;0.40;;
52868;SDS011;39100;53.480;6.158;2024-02-26T09:01:54;5.15;;;0.90;;
52868;SDS011;39100;53.480;6.158;2024-02-26T09:04:20;2.20;;;1.00;;
52868;SDS011;39100;53.480;6.158;2024-02-26T09:06:45;4.57;;;0.60;;
52868;SDS011;39100;53.480;6.158;2024-02-26T09:09:12;2.75;;;0.40;;
52868;SDS011;39100;53.480;6.158;2024-02-26T09:11:37;1.20;;;0.40;;
52868;SDS011;39100;53.480;6.158;2024-02-26T09:14:03;0.45;;;0.28;;
52868;SDS011;39100;53.480;6.158;2024-02-26T09:16:29;1.85;;;0.70;;
52868;SDS011;39100;53.480;6.158;2024-02-26T09:18:55;1.58;;;0.57;;
52868;SDS011;39100;53.480;6.158;2024-02-26T09:21:21;4.65;;;1.05;;
52868;SDS011;39100;53.480;6.158;2024-02-26T09:23:52;6.88;;;1.38;;
52868;SDS011;39100;53.480;6.158;2024-02-26T09:26:18;7.40;;;1.40;;
52868;SDS011;39100;53.480;6.158;2024-02-26T09:28:44;5.05;;;1.45;;
52868;SDS011;39100;53.480;6.158;2024-02-26T09:31:10;5.82;;;1.77;;
52868;SDS011;39100;53.480;6.158;2024-02-26T09:33:35;4.63;;;1.13;;
52868;SDS011;39100;53.480;6.158;2024-02-26T09:36:01;5.07;;;1.45;;
52868;SDS011;39100;53.480;6.158;2024-02-26T09:38:27;9.70;;;3.83;;
52868;SDS011;39100;53.480;6.158;2024-02-26T09:40:54;7.78;;;2.53;;
52868;SDS011;39100;53.480;6.158;2024-02-26T09:43:22;8.02;;;3.03;;
52868;SDS011;39100;53.480;6.158;2024-02-26T09:45:52;6.32;;;1.95;;
52868;SDS011;39100;53.480;6.158;2024-02-26T09:48:18;5.80;;;2.22;;
52868;SDS011;39100;53.480;6.158;2024-02-26T09:50:44;5.20;;;1.50;;
52868;SDS011;39100;53.480;6.158;2024-02-26T09:53:11;21.70;;;5.95;;
52868;SDS011;39100;53.480;6.158;2024-02-26T09:55:37;13.40;;;4.80;;
52868;SDS011;39100;53.480;6.158;2024-02-26T09:58:04;9.10;;;3.55;;
52868;SDS011;39100;53.480;6.158;2024-02-26T10:00:31;11.40;;;3.53;;
52868;SDS011;39100;53.480;6.158;2024-02-26T10:02:59;22.23;;;7.68;;
52868;SDS011;39100;53.480;6.158;2024-02-26T10:05:29;19.35;;;8.13;;
52868;SDS011;39100;53.480;6.158;2024-02-26T10:07:56;11.73;;;4.68;;
52868;SDS011;39100;53.480;6.158;2024-02-26T10:10:23;11.48;;;3.70;;
52868;SDS011;39100;53.480;6.158;2024-02-26T10:12:49;10.00;;;3.25;;
52868;SDS011;39100;53.480;6.158;2024-02-26T10:15:15;11.07;;;3.45;;
52868;SDS011;39100;53.480;6.158;2024-02-26T10:17:41;17.88;;;6.40;;
52868;SDS011;39100;53.480;6.158;2024-02-26T10:20:13;29.02;;;10.40;;
52868;SDS011;39100;53.480;6.158;2024-02-26T10:22:41;25.92;;;8.85;;
52868;SDS011;39100;53.480;6.158;2024-02-26T10:25:07;20.63;;;8.70;;
52868;SDS011;39100;53.480;6.158;2024-02-26T10:27:34;15.45;;;6.82;;
52868;SDS011;39100;53.480;6.158;2024-02-26T10:30:16;12.77;;;5.20;;
52868;SDS011;39100;53.480;6.158;2024-02-26T10:32:46;13.05;;;5.75;;
52868;SDS011;39100;53.480;6.158;2024-02-26T10:35:12;23.25;;;8.23;;
52868;SDS011;39100;53.480;6.158;2024-02-26T10:37:39;10.90;;;4.72;;
52868;SDS011;39100;53.480;6.158;2024-02-26T10:40:06;23.45;;;6.68;;
52868;SDS011;39100;53.480;6.158;2024-02-26T10:42:35;16.27;;;6.57;;
52868;SDS011;39100;53.480;6.158;2024-02-26T10:45:01;25.02;;;8.63;;
52868;SDS011;39100;53.480;6.158;2024-02-26T10:47:27;40.35;;;13.88;;
52868;SDS011;39100;53.480;6.158;2024-02-26T10:49:54;43.58;;;17.67;;
52868;SDS011;39100;53.480;6.158;2024-02-26T10:52:21;30.27;;;11.80;;
52868;SDS011;39100;53.480;6.158;2024-02-26T10:54:50;23.85;;;9.80;;
52868;SDS011;39100;53.480;6.158;2024-02-26T10:57:19;24.15;;;9.38;;
52868;SDS011;39100;53.480;6.158;2024-02-26T10:59:46;22.70;;;7.20;;
52868;SDS011;39100;53.480;6.158;2024-02-26T11:02:13;12.52;;;5.70;;
52868;SDS011;39100;53.480;6.158;2024-02-26T11:04:39;6.55;;;4.22;;
52868;SDS011;39100;53.480;6.158;2024-02-26T11:07:05;3.90;;;2.80;;
52868;SDS011;39100;53.480;6.158;2024-02-26T11:09:33;5.55;;;2.63;;
52868;SDS011;39100;53.480;6.158;2024-02-26T11:12:00;3.53;;;2.30;;
52868;SDS011;39100;53.480;6.158;2024-02-26T11:14:27;6.78;;;2.10;;
52868;SDS011;39100;53.480;6.158;2024-02-26T11:16:55;6.68;;;2.65;;
52868;SDS011;39100;53.480;6.158;2024-02-26T11:19:21;3.08;;;2.05;;
52868;SDS011;39100;53.480;6.158;2024-02-26T11:21:49;3.83;;;1.50;;
52868;SDS011;39100;53.480;6.158;2024-02-26T11:24:15;3.95;;;2.17;;
52868;SDS011;39100;53.480;6.158;2024-02-26T11:27:04;3.97;;;1.50;;
52868;SDS011;39100;53.480;6.158;2024-02-26T11:29:33;2.38;;;1.50;;
52868;SDS011;39100;53.480;6.158;2024-02-26T11:32:03;1.63;;;0.88;;
52868;SDS011;39100;53.480;6.158;2024-02-26T11:34:30;1.27;;;0.80;;
52868;SDS011;39100;53.480;6.158;2024-02-26T11:36:55;2.35;;;0.88;;
52868;SDS011;39100;53.480;6.158;2024-02-26T11:39:21;1.83;;;0.75;;
52868;SDS011;39100;53.480;6.158;2024-02-26T11:41:48;2.70;;;1.00;;
52868;SDS011;39100;53.480;6.158;2024-02-26T11:44:15;3.15;;;1.23;;
52868;SDS011;39100;53.480;6.158;2024-02-26T11:46:54;4.75;;;1.40;;
52868;SDS011;39100;53.480;6.158;2024-02-26T11:51:54;6.90;;;1.38;;
52868;SDS011;39100;53.480;6.158;2024-02-26T11:54:39;9.35;;;1.60;;
52868;SDS011;39100;53.480;6.158;2024-02-26T11:57:23;2.72;;;0.80;;
52868;SDS011;39100;53.480;6.158;2024-02-26T11:59:57;2.60;;;0.75;;
52868;SDS011;39100;53.480;6.158;2024-02-26T12:02:40;2.35;;;0.88;;
52868;SDS011;39100;53.480;6.158;2024-02-26T12:05:19;4.75;;;1.42;;
52868;SDS011;39100;53.480;6.158;2024-02-26T12:07:56;9.77;;;2.05;;
52868;SDS011;39100;53.480;6.158;2024-02-26T12:13:04;3.60;;;1.48;;
52868;SDS011;39100;53.480;6.158;2024-02-26T12:15:33;2.67;;;0.93;;
52868;SDS011;39100;53.480;6.158;2024-02-26T12:18:03;3.42;;;1.35;;
52868;SDS011;39100;53.480;6.158;2024-02-26T12:20:30;6.45;;;1.65;;
52868;SDS011;39100;53.480;6.158;2024-02-26T12:22:57;6.68;;;1.98;;
52868;SDS011;39100;53.480;6.158;2024-02-26T12:25:23;5.82;;;1.75;;
52868;SDS011;39100;53.480;6.158;2024-02-26T12:27:51;6.82;;;1.60;;
52868;SDS011;39100;53.480;6.158;2024-02-26T12:30:18;9.65;;;1.95;;
52868;SDS011;39100;53.480;6.158;2024-02-26T12:32:44;10.85;;;3.40;;
52868;SDS011;39100;53.480;6.158;2024-02-26T12:35:13;20.40;;;6.82;;
52868;SDS011;39100;53.480;6.158;2024-02-26T12:37:41;22.88;;;7.57;;
52868;SDS011;39100;53.480;6.158;2024-02-26T12:40:10;20.67;;;5.63;;
52868;SDS011;39100;53.480;6.158;2024-02-26T12:42:36;15.60;;;5.60;;
52868;SDS011;39100;53.480;6.158;2024-02-26T12:45:06;7.93;;;2.67;;
52868;SDS011;39100;53.480;6.158;2024-02-26T12:47:41;9.63;;;3.08;;
52868;SDS011;39100;53.480;6.158;2024-02-26T12:50:14;8.02;;;2.90;;
52868;SDS011;39100;53.480;6.158;2024-02-26T12:52:43;9.35;;;2.05;;
52868;SDS011;39100;53.480;6.158;2024-02-26T12:55:11;5.13;;;2.45;;
52868;SDS011;39100;53.480;6.158;2024-02-26T12:57:40;9.27;;;2.13;;
52868;SDS011;39100;53.480;6.158;2024-02-26T13:00:15;5.80;;;1.75;;
52868;SDS011;39100;53.480;6.158;2024-02-26T13:02:43;6.25;;;1.83;;
52868;SDS011;39100;53.480;6.158;2024-02-26T13:05:10;11.48;;;1.95;;
52868;SDS011;39100;53.480;6.158;2024-02-26T13:07:40;6.25;;;1.27;;
52868;SDS011;39100;53.480;6.158;2024-02-26T13:10:12;9.75;;;1.80;;
52868;SDS011;39100;53.480;6.158;2024-02-26T13:12:44;6.50;;;2.17;;
52868;SDS011;39100;53.480;6.158;2024-02-26T13:15:15;4.10;;;1.90;;
52868;SDS011;39100;53.480;6.158;2024-02-26T13:17:43;3.17;;;2.08;;
52868;SDS011;39100;53.480;6.158;2024-02-26T13:20:09;6.72;;;1.75;;
52868;SDS011;39100;53.480;6.158;2024-02-26T13:22:36;4.90;;;1.50;;
52868;SDS011;39100;53.480;6.158;2024-02-26T13:25:02;6.82;;;2.10;;
52868;SDS011;39100;53.480;6.158;2024-02-26T13:27:28;5.00;;;1.70;;
52868;SDS011;39100;53.480;6.158;2024-02-26T13:30:04;3.58;;;1.30;;
52868;SDS011;39100;53.480;6.158;2024-02-26T13:32:38;6.45;;;1.95;;
52868;SDS011;39100;53.480;6.158;2024-02-26T13:35:05;7.20;;;2.60;;
52868;SDS011;39100;53.480;6.158;2024-02-26T13:37:37;5.13;;;1.40;;
52868;SDS011;39100;53.480;6.158;2024-02-26T13:40:05;3.58;;;1.63;;
52868;SDS011;39100;53.480;6.158;2024-02-26T13:42:31;4.15;;;1.40;;
52868;SDS011;39100;53.480;6.158;2024-02-26T13:44:56;6.00;;;1.52;;
52868;SDS011;39100;53.480;6.158;2024-02-26T13:47:22;7.45;;;1.58;;
52868;SDS011;39100;53.480;6.158;2024-02-26T13:49:48;5.43;;;1.45;;
52868;SDS011;39100;53.480;6.158;2024-02-26T13:52:13;2.70;;;0.70;;
52868;SDS011;39100;53.480;6.158;2024-02-26T13:54:39;3.85;;;0.98;;
52868;SDS011;39100;53.480;6.158;2024-02-26T13:57:05;2.35;;;0.82;;
52868;SDS011;39100;53.480;6.158;2024-02-26T13:59:31;5.55;;;1.00;;
52868;SDS011;39100;53.480;6.158;2024-02-26T14:01:57;3.25;;;0.95;;
52868;SDS011;39100;53.480;6.158;2024-02-26T14:04:22;4.72;;;0.90;;
52868;SDS011;39100;53.480;6.158;2024-02-26T14:06:48;3.42;;;1.00;;
52868;SDS011;39100;53.480;6.158;2024-02-26T14:09:14;2.53;;;0.95;;
52868;SDS011;39100;53.480;6.158;2024-02-26T14:11:44;2.30;;;0.75;;
52868;SDS011;39100;53.480;6.158;2024-02-26T14:14:10;3.90;;;1.00;;
52868;SDS011;39100;53.480;6.158;2024-02-26T14:16:36;6.10;;;0.95;;
52868;SDS011;39100;53.480;6.158;2024-02-26T14:19:01;5.70;;;0.73;;
52868;SDS011;39100;53.480;6.158;2024-02-26T14:21:28;2.85;;;1.02;;
52868;SDS011;39100;53.480;6.158;2024-02-26T14:23:54;3.47;;;0.80;;
52868;SDS011;39100;53.480;6.158;2024-02-26T14:26:21;2.42;;;0.60;;
52868;SDS011;39100;53.480;6.158;2024-02-26T14:28:47;3.55;;;1.20;;
52868;SDS011;39100;53.480;6.158;2024-02-26T14:31:13;3.63;;;1.50;;
52868;SDS011;39100;53.480;6.158;2024-02-26T14:33:42;2.53;;;0.90;;
52868;SDS011;39100;53.480;6.158;2024-02-26T14:36:07;4.38;;;1.30;;
52868;SDS011;39100;53.480;6.158;2024-02-26T14:38:33;3.38;;;1.17;;
52868;SDS011;39100;53.480;6.158;2024-02-26T14:40:58;2.67;;;1.40;;
52868;SDS011;39100;53.480;6.158;2024-02-26T14:43:24;4.75;;;1.70;;
52868;SDS011;39100;53.480;6.158;2024-02-26T14:45:50;1.80;;;0.73;;
52868;SDS011;39100;53.480;6.158;2024-02-26T14:48:15;1.02;;;0.63;;